createdAt,value
2022-11-30T00:01:28.274Z,16.17
2022-11-30T00:03:57.730Z,15.32
2022-11-30T00:06:24.568Z,16.13
2022-11-30T00:08:54.585Z,17.67
2022-11-30T00:11:21.616Z,16.10
2022-11-30T00:13:48.429Z,17.50
2022-11-30T00:16:15.122Z,14.77
2022-11-30T00:18:41.563Z,15.88
2022-11-30T00:21:10.447Z,15.30
2022-11-30T00:23:38.221Z,14.63
2022-11-30T00:26:06.225Z,15.45
2022-11-30T00:28:33.554Z,14.73
2022-11-30T00:31:00.807Z,14.52
2022-11-30T00:33:27.739Z,15.38
2022-11-30T00:36:00.815Z,14.43
2022-11-30T00:38:27.878Z,15.57
2022-11-30T00:40:54.384Z,14.57
2022-11-30T00:43:20.750Z,15.07
2022-11-30T00:45:47.146Z,14.52
2022-11-30T00:48:13.646Z,15.23
2022-11-30T00:50:40.168Z,15.35
2022-11-30T00:53:06.573Z,14.52
2022-11-30T00:55:33.418Z,14.52
2022-11-30T00:58:00.187Z,15.27
2022-11-30T01:00:26.781Z,15.23
2022-11-30T01:02:56.378Z,14.40
2022-11-30T01:05:22.752Z,13.70
2022-11-30T01:07:49.257Z,14.10
2022-11-30T01:10:15.774Z,14.13
2022-11-30T01:12:42.200Z,14.75
2022-11-30T01:15:08.874Z,14.35
2022-11-30T01:17:35.353Z,13.98
2022-11-30T01:20:01.717Z,15.25
2022-11-30T01:22:28.768Z,15.13
2022-11-30T01:24:55.248Z,14.18
2022-11-30T01:27:21.631Z,14.30
2022-11-30T01:29:48.046Z,14.68
2022-11-30T01:32:14.417Z,15.75
2022-11-30T01:34:40.804Z,14.48
2022-11-30T01:37:08.008Z,15.10
2022-11-30T01:39:34.391Z,15.63
2022-11-30T01:42:00.742Z,13.95
2022-11-30T01:44:27.193Z,14.88
2022-11-30T01:47:02.150Z,16.08
2022-11-30T01:49:30.135Z,16.08
2022-11-30T01:52:07.798Z,15.52
2022-11-30T01:54:40.779Z,14.88
2022-11-30T01:57:22.868Z,15.32
2022-11-30T01:59:50.750Z,15.88
2022-11-30T02:02:20.296Z,16.52
2022-11-30T02:04:47.015Z,15.43
2022-11-30T02:07:13.637Z,14.45
2022-11-30T02:09:42.648Z,16.05
2022-11-30T02:12:11.822Z,15.73
2022-11-30T02:14:43.098Z,15.48
2022-11-30T02:17:25.459Z,17.00
2022-11-30T02:20:12.219Z,17.17
2022-11-30T02:22:57.322Z,17.25
2022-11-30T02:25:29.733Z,15.00
2022-11-30T02:27:56.051Z,15.98
2022-11-30T02:30:23.067Z,15.30
2022-11-30T02:33:00.391Z,15.35
2022-11-30T02:35:29.112Z,15.68
2022-11-30T02:37:57.016Z,15.85
2022-11-30T02:40:23.469Z,16.17
2022-11-30T02:42:51.014Z,15.63
2022-11-30T02:45:20.503Z,14.75
2022-11-30T02:47:52.027Z,13.48
2022-11-30T02:50:24.036Z,14.68
2022-11-30T02:52:51.189Z,15.50
2022-11-30T02:55:18.603Z,14.82
2022-11-30T02:57:45.074Z,15.80
2022-11-30T03:00:12.145Z,15.85
2022-11-30T03:02:38.852Z,15.88
2022-11-30T03:05:05.483Z,15.55
2022-11-30T03:07:31.975Z,14.18
2022-11-30T03:09:58.611Z,16.13
2022-11-30T03:12:25.055Z,14.00
2022-11-30T03:14:51.478Z,15.27
2022-11-30T03:17:18.269Z,15.30
2022-11-30T03:19:44.635Z,15.13
2022-11-30T03:22:10.997Z,15.05
2022-11-30T03:24:37.515Z,14.48
2022-11-30T03:27:04.008Z,14.85
2022-11-30T03:29:30.406Z,15.02
2022-11-30T03:31:56.802Z,15.80
2022-11-30T03:34:26.387Z,15.57
2022-11-30T03:36:52.834Z,15.15
2022-11-30T03:39:19.173Z,16.17
2022-11-30T03:41:45.667Z,16.80
2022-11-30T03:44:12.036Z,15.90
2022-11-30T03:46:38.476Z,16.23
2022-11-30T03:49:05.810Z,16.48
2022-11-30T03:51:32.241Z,15.55
2022-11-30T03:53:58.715Z,16.20
2022-11-30T03:56:25.108Z,14.40
2022-11-30T03:58:51.634Z,15.45
2022-11-30T04:01:22.179Z,15.15
2022-11-30T04:03:48.827Z,16.80
2022-11-30T04:06:15.183Z,15.48
2022-11-30T04:08:41.660Z,15.27
2022-11-30T04:11:08.487Z,15.05
2022-11-30T04:13:35.751Z,16.70
2022-11-30T04:16:02.465Z,14.32
2022-11-30T04:18:29.628Z,15.98
2022-11-30T04:20:56.922Z,15.13
2022-11-30T04:23:23.625Z,14.75
2022-11-30T04:25:50.154Z,15.93
2022-11-30T04:28:16.797Z,16.65
2022-11-30T04:30:43.500Z,15.98
2022-11-30T04:33:10.003Z,15.98
2022-11-30T04:35:40.799Z,14.90
2022-11-30T04:38:07.273Z,16.10
2022-11-30T04:40:33.671Z,16.08
2022-11-30T04:43:00.350Z,16.55
2022-11-30T04:45:29.062Z,15.95
2022-11-30T04:47:58.889Z,15.52
2022-11-30T04:50:25.420Z,17.02
2022-11-30T04:52:51.771Z,16.08
2022-11-30T04:55:19.419Z,15.85
2022-11-30T04:57:46.430Z,15.82
2022-11-30T05:03:03.048Z,15.00
2022-11-30T05:05:29.468Z,15.48
2022-11-30T05:07:57.290Z,15.52
2022-11-30T05:10:24.067Z,20.63
2022-11-30T05:12:50.494Z,21.73
2022-11-30T05:15:17.010Z,18.83
2022-11-30T05:17:43.354Z,18.08
2022-11-30T05:20:09.885Z,18.27
2022-11-30T05:22:36.403Z,19.02
2022-11-30T05:25:02.924Z,18.73
2022-11-30T05:27:29.411Z,17.17
2022-11-30T05:29:55.839Z,16.95
2022-11-30T05:32:22.252Z,17.02
2022-11-30T05:34:51.660Z,17.92
2022-11-30T05:37:18.790Z,16.98
2022-11-30T05:39:45.144Z,19.25
2022-11-30T05:42:11.498Z,17.58
2022-11-30T05:44:37.906Z,17.80
2022-11-30T05:47:04.395Z,16.75
2022-11-30T05:49:30.796Z,17.98
2022-11-30T05:51:57.251Z,18.05
2022-11-30T05:54:23.583Z,18.92
2022-11-30T05:56:54.399Z,17.08
2022-11-30T05:59:21.530Z,17.38
2022-11-30T06:01:48.088Z,16.27
2022-11-30T06:04:14.738Z,16.95
2022-11-30T06:06:41.158Z,19.35
2022-11-30T06:09:07.615Z,17.08
2022-11-30T06:11:34.020Z,16.38
2022-11-30T06:14:00.405Z,16.48
2022-11-30T06:16:26.789Z,17.45
2022-11-30T06:18:53.464Z,17.75
2022-11-30T06:21:24.355Z,18.00
2022-11-30T06:23:51.194Z,18.13
2022-11-30T06:26:17.573Z,17.85
2022-11-30T06:28:47.863Z,17.48
2022-11-30T06:31:14.814Z,17.88
2022-11-30T06:33:41.281Z,16.70
2022-11-30T06:36:07.830Z,17.77
2022-11-30T06:38:34.222Z,17.85
2022-11-30T06:41:05.614Z,17.70
2022-11-30T06:43:38.943Z,17.65
2022-11-30T06:46:06.367Z,18.60
2022-11-30T06:48:33.286Z,16.85
2022-11-30T06:51:00.442Z,16.63
2022-11-30T06:53:27.270Z,18.02
2022-11-30T06:55:53.826Z,18.00
2022-11-30T06:58:20.198Z,16.23
2022-11-30T07:00:46.642Z,17.52
2022-11-30T07:03:13.412Z,18.40
2022-11-30T07:05:41.757Z,17.67
2022-11-30T07:08:08.292Z,17.63
2022-11-30T07:10:38.598Z,18.20
2022-11-30T07:13:04.967Z,18.05
2022-11-30T07:15:31.325Z,19.50
2022-11-30T07:18:00.150Z,19.38
2022-11-30T07:20:26.507Z,19.88
2022-11-30T07:22:55.349Z,20.35
2022-11-30T07:25:40.413Z,17.63
2022-11-30T07:28:08.620Z,18.15
2022-11-30T07:30:35.109Z,18.08
2022-11-30T07:33:01.533Z,18.08
2022-11-30T07:35:27.937Z,17.77
2022-11-30T07:37:54.336Z,18.02
2022-11-30T07:40:20.697Z,18.52
2022-11-30T07:42:47.122Z,17.05
2022-11-30T07:45:13.565Z,18.27
2022-11-30T07:47:39.931Z,16.70
2022-11-30T07:50:06.628Z,16.58
2022-11-30T07:52:33.204Z,18.67
2022-11-30T07:54:59.605Z,18.38
2022-11-30T07:57:26.014Z,17.98
2022-11-30T07:59:52.403Z,17.48
2022-11-30T08:02:18.886Z,17.77
2022-11-30T08:04:46.056Z,18.92
2022-11-30T08:07:14.664Z,18.10
2022-11-30T08:09:41.087Z,17.30
2022-11-30T08:12:07.592Z,18.75
2022-11-30T08:14:50.488Z,18.23
2022-11-30T08:17:20.407Z,16.40
2022-11-30T08:19:46.827Z,17.98
2022-11-30T08:22:13.202Z,18.23
2022-11-30T08:24:39.547Z,18.17
2022-11-30T08:27:05.924Z,17.98
2022-11-30T08:29:32.282Z,19.08
2022-11-30T08:31:58.739Z,18.25
2022-11-30T08:34:26.547Z,17.42
2022-11-30T08:36:52.986Z,16.48
2022-11-30T08:39:19.448Z,17.40
2022-11-30T08:41:45.879Z,16.25
2022-11-30T08:44:12.275Z,15.35
2022-11-30T08:46:54.273Z,15.60
2022-11-30T08:49:23.453Z,15.77
2022-11-30T08:52:16.438Z,13.55
2022-11-30T08:54:39.381Z,11.70
2022-11-30T08:57:05.783Z,11.65
2022-11-30T08:59:32.195Z,11.52
2022-11-30T09:01:58.566Z,11.95
2022-11-30T09:04:25.031Z,12.45
2022-11-30T09:06:51.412Z,11.98
2022-11-30T09:09:17.772Z,10.50
2022-11-30T09:11:44.402Z,10.77
2022-11-30T09:14:10.884Z,11.35
2022-11-30T09:16:37.401Z,11.18
2022-11-30T09:19:03.831Z,11.07
2022-11-30T09:21:30.519Z,11.32
2022-11-30T09:23:57.073Z,10.02
2022-11-30T09:26:25.250Z,11.13
2022-11-30T09:28:52.351Z,10.13
2022-11-30T09:31:20.152Z,9.90
2022-11-30T09:33:46.957Z,10.50
2022-11-30T09:36:14.465Z,10.50
2022-11-30T09:38:42.489Z,11.38
2022-11-30T09:41:18.032Z,10.55
2022-11-30T09:43:51.120Z,10.85
2022-11-30T09:46:17.671Z,10.73
2022-11-30T09:48:50.164Z,11.23
2022-11-30T09:51:26.642Z,10.38
2022-11-30T09:53:56.245Z,10.40
2022-11-30T09:56:34.690Z,11.68
2022-11-30T09:59:13.711Z,10.32
2022-11-30T10:01:45.013Z,11.70
2022-11-30T10:04:20.013Z,10.02
2022-11-30T10:06:51.423Z,11.75
2022-11-30T10:09:26.078Z,12.32
2022-11-30T10:11:55.572Z,11.27
2022-11-30T10:14:24.975Z,11.98
2022-11-30T10:16:57.954Z,11.65
2022-11-30T10:19:41.738Z,11.65
2022-11-30T10:22:18.226Z,11.48
2022-11-30T10:24:51.256Z,10.27
2022-11-30T10:27:20.238Z,11.32
2022-11-30T10:29:46.684Z,11.10
2022-11-30T10:32:17.119Z,10.38
2022-11-30T10:34:45.890Z,9.18
2022-11-30T10:37:14.966Z,9.15
2022-11-30T10:40:00.293Z,9.00
2022-11-30T10:42:38.666Z,9.32
2022-11-30T10:45:11.277Z,8.77
2022-11-30T10:47:41.183Z,7.40
2022-11-30T10:50:07.900Z,8.35
2022-11-30T10:53:00.908Z,8.05
2022-11-30T10:55:29.645Z,8.02
2022-11-30T10:57:59.413Z,7.68
2022-11-30T11:00:25.818Z,7.78
2022-11-30T11:02:52.424Z,7.00
2022-11-30T11:05:21.991Z,7.03
2022-11-30T11:08:03.000Z,6.50
2022-11-30T11:10:34.397Z,6.82
2022-11-30T11:13:00.824Z,6.90
2022-11-30T11:15:27.383Z,7.45
2022-11-30T11:17:54.744Z,7.05
2022-11-30T11:20:28.763Z,7.05
2022-11-30T11:25:22.343Z,7.45
2022-11-30T11:27:59.110Z,7.65
2022-11-30T11:30:25.449Z,8.75
2022-11-30T11:33:15.916Z,8.48
2022-11-30T11:35:42.291Z,7.95
2022-11-30T11:38:27.336Z,8.15
2022-11-30T11:40:58.260Z,8.27
2022-11-30T11:43:26.043Z,10.27
2022-11-30T11:45:54.082Z,10.38
2022-11-30T11:48:29.307Z,10.68
2022-11-30T11:51:07.882Z,10.30
2022-11-30T11:53:52.961Z,10.57
2022-11-30T11:56:27.196Z,11.57
2022-11-30T11:58:59.459Z,10.50
2022-11-30T12:01:39.962Z,11.00
2022-11-30T12:04:12.985Z,11.13
2022-11-30T12:06:42.206Z,11.77
2022-11-30T12:09:14.281Z,12.32
2022-11-30T12:11:42.450Z,12.07
2022-11-30T12:14:11.208Z,12.40
2022-11-30T12:16:47.987Z,13.25
2022-11-30T12:19:21.809Z,13.38
2022-11-30T12:22:06.968Z,12.52
2022-11-30T12:24:52.422Z,11.27
2022-11-30T12:27:21.852Z,13.07
2022-11-30T12:29:55.270Z,12.38
2022-11-30T12:32:34.803Z,12.68
2022-11-30T12:35:12.760Z,12.48
2022-11-30T12:37:54.407Z,11.98
2022-11-30T12:40:20.819Z,12.50
2022-11-30T12:42:52.679Z,11.70
2022-11-30T12:45:22.078Z,11.15
2022-11-30T12:48:07.159Z,11.43
2022-11-30T12:50:52.056Z,11.38
2022-11-30T12:53:30.430Z,11.80
2022-11-30T12:55:59.862Z,12.02
2022-11-30T12:58:32.437Z,11.35
2022-11-30T13:01:02.030Z,11.63
2022-11-30T13:03:43.862Z,10.05
2022-11-30T13:06:15.721Z,10.25
2022-11-30T13:08:51.089Z,9.57
2022-11-30T13:11:19.975Z,10.10
2022-11-30T13:13:49.881Z,10.20
2022-11-30T13:16:17.032Z,10.88
2022-11-30T13:18:43.642Z,10.50
2022-11-30T13:21:30.308Z,10.05
2022-11-30T13:24:09.823Z,9.00
2022-11-30T13:26:42.390Z,9.32
2022-11-30T13:29:15.244Z,9.75
2022-11-30T13:31:44.841Z,9.13
2022-11-30T13:34:24.699Z,8.20
2022-11-30T13:36:51.278Z,9.73
2022-11-30T13:39:23.453Z,8.57
2022-11-30T13:42:02.185Z,9.45
2022-11-30T13:44:33.466Z,7.95
2022-11-30T13:47:00.968Z,8.80
2022-11-30T13:49:37.090Z,8.45
2022-11-30T13:54:54.526Z,8.57
2022-11-30T13:57:24.227Z,9.13
2022-11-30T13:59:51.929Z,9.43
2022-11-30T14:02:33.672Z,10.13
2022-11-30T14:05:18.389Z,11.32
2022-11-30T14:07:50.945Z,11.43
2022-11-30T14:10:35.974Z,11.68
2022-11-30T14:13:02.446Z,11.60
2022-11-30T14:15:37.937Z,12.57
2022-11-30T14:18:07.382Z,12.15
2022-11-30T14:20:37.992Z,12.43
2022-11-30T14:23:06.194Z,12.80
2022-11-30T14:25:34.159Z,12.73
2022-11-30T14:28:02.203Z,18.95
2022-11-30T14:30:31.211Z,16.58
2022-11-30T14:33:01.161Z,14.38
2022-11-30T14:35:29.515Z,13.82
2022-11-30T14:37:56.848Z,15.27
2022-11-30T14:40:24.467Z,14.70
2022-11-30T14:42:50.840Z,14.82
2022-11-30T14:45:21.688Z,15.52
2022-11-30T14:47:51.495Z,15.63
2022-11-30T14:50:23.926Z,14.98
2022-11-30T14:52:51.896Z,15.80
2022-11-30T14:55:38.316Z,16.02
2022-11-30T14:58:23.322Z,16.25
2022-11-30T15:00:50.090Z,17.13
2022-11-30T15:03:28.496Z,14.75
2022-11-30T15:05:56.540Z,15.48
2022-11-30T15:08:23.751Z,15.73
2022-11-30T15:10:50.487Z,17.80
2022-11-30T15:13:18.471Z,16.65
2022-11-30T15:15:51.969Z,19.08
2022-11-30T15:18:19.532Z,17.08
2022-11-30T15:20:51.335Z,15.45
2022-11-30T15:23:17.801Z,15.95
2022-11-30T15:25:46.799Z,16.30
2022-11-30T15:28:17.206Z,15.30
2022-11-30T15:30:45.448Z,14.82
2022-11-30T15:33:19.919Z,15.38
2022-11-30T15:36:13.603Z,16.00
2022-11-30T15:38:34.179Z,15.88
2022-11-30T15:41:03.493Z,15.40
2022-11-30T15:43:35.324Z,16.50
2022-11-30T15:46:01.903Z,16.35
2022-11-30T15:48:30.002Z,15.98
2022-11-30T15:50:56.571Z,15.85
2022-11-30T15:53:30.402Z,16.20
2022-11-30T15:55:56.807Z,17.08
2022-11-30T15:58:29.083Z,17.05
2022-11-30T16:01:06.698Z,16.60
2022-11-30T16:03:34.114Z,16.98
2022-11-30T16:06:02.195Z,18.08
2022-11-30T16:08:28.632Z,17.98
2022-11-30T16:10:55.160Z,17.42
2022-11-30T16:13:22.687Z,17.50
2022-11-30T16:15:50.629Z,17.77
2022-11-30T16:18:19.940Z,16.20
2022-11-30T16:20:47.826Z,16.80
2022-11-30T16:23:15.436Z,16.10
2022-11-30T16:25:42.704Z,16.63
2022-11-30T16:28:10.163Z,17.50
2022-11-30T16:30:37.177Z,16.55
2022-11-30T16:33:03.595Z,16.98
2022-11-30T16:35:37.309Z,17.80
2022-11-30T16:38:03.785Z,16.50
2022-11-30T16:40:36.893Z,14.50
2022-11-30T16:43:05.224Z,14.77
2022-11-30T16:45:34.571Z,12.68
2022-11-30T16:48:01.166Z,14.45
2022-11-30T16:50:27.546Z,13.30
2022-11-30T16:52:54.011Z,13.05
2022-11-30T16:55:21.644Z,14.45
2022-11-30T16:57:48.736Z,11.10
2022-11-30T17:00:17.195Z,11.00
2022-11-30T17:02:59.153Z,10.63
2022-11-30T17:05:26.016Z,11.63
2022-11-30T17:07:52.829Z,11.05
2022-11-30T17:10:19.336Z,11.38
2022-11-30T17:12:46.004Z,12.27
2022-11-30T17:15:17.432Z,11.77
2022-11-30T17:17:44.158Z,11.60
2022-11-30T17:20:11.715Z,11.52
2022-11-30T17:22:39.770Z,11.98
2022-11-30T17:25:07.741Z,11.52
2022-11-30T17:27:34.135Z,12.07
2022-11-30T17:30:00.539Z,12.27
2022-11-30T17:32:26.924Z,12.38
2022-11-30T17:34:53.347Z,11.63
2022-11-30T17:37:19.768Z,12.60
2022-11-30T17:39:46.216Z,13.55
2022-11-30T17:42:12.739Z,14.02
2022-11-30T17:44:39.197Z,13.75
2022-11-30T17:47:05.643Z,15.23
2022-11-30T17:49:32.054Z,15.93
2022-11-30T17:51:58.623Z,14.85
2022-11-30T17:54:25.092Z,13.75
2022-11-30T17:56:52.754Z,14.25
2022-11-30T17:59:19.417Z,12.30
2022-11-30T18:01:46.026Z,13.77
2022-11-30T18:04:13.512Z,14.27
2022-11-30T18:06:39.990Z,13.25
2022-11-30T18:09:06.486Z,14.20
2022-11-30T18:11:33.507Z,14.02
2022-11-30T18:14:00.761Z,13.77
2022-11-30T18:16:31.482Z,13.30
2022-11-30T18:18:58.721Z,13.85
2022-11-30T18:21:26.841Z,14.18
2022-11-30T18:23:53.725Z,13.45
2022-11-30T18:26:21.274Z,12.52
2022-11-30T18:28:51.360Z,14.30
2022-11-30T18:31:17.889Z,13.80
2022-11-30T18:33:44.307Z,13.88
2022-11-30T18:36:10.867Z,13.65
2022-11-30T18:38:38.716Z,14.07
2022-11-30T18:41:06.075Z,12.60
2022-11-30T18:43:33.710Z,13.00
2022-11-30T18:46:06.985Z,13.15
2022-11-30T18:48:33.589Z,12.20
2022-11-30T18:51:00.175Z,13.10
2022-11-30T18:53:26.547Z,14.05
2022-11-30T18:55:52.915Z,12.93
2022-11-30T18:58:19.328Z,14.15
2022-11-30T19:00:45.715Z,12.70
2022-11-30T19:03:12.114Z,13.43
2022-11-30T19:05:40.775Z,12.93
2022-11-30T19:08:08.636Z,12.30
2022-11-30T19:10:35.996Z,11.77
2022-11-30T19:13:04.069Z,11.68
2022-11-30T19:15:38.607Z,12.18
2022-11-30T19:18:05.625Z,12.20
2022-11-30T19:20:36.988Z,12.60
2022-11-30T19:23:03.444Z,12.25
2022-11-30T19:25:29.978Z,12.90
2022-11-30T19:27:56.392Z,13.13
2022-11-30T19:30:22.864Z,13.60
2022-11-30T19:32:49.351Z,11.95
2022-11-30T19:35:15.750Z,12.32
2022-11-30T19:37:42.229Z,12.07
2022-11-30T19:40:08.971Z,13.60
2022-11-30T19:42:35.503Z,13.00
2022-11-30T19:45:02.079Z,13.27
2022-11-30T19:47:28.554Z,13.25
2022-11-30T19:49:55.806Z,13.38
2022-11-30T19:52:22.256Z,13.52
2022-11-30T19:54:49.176Z,13.15
2022-11-30T19:57:15.844Z,13.00
2022-11-30T19:59:42.294Z,13.27
2022-11-30T20:02:12.010Z,13.75
2022-11-30T20:04:39.225Z,12.52
2022-11-30T20:07:05.625Z,13.85
2022-11-30T20:09:32.135Z,13.07
2022-11-30T20:11:58.611Z,12.32
2022-11-30T20:14:25.249Z,13.20
2022-11-30T20:16:52.912Z,12.93
2022-11-30T20:19:19.532Z,12.07
2022-11-30T20:21:48.327Z,12.02
2022-11-30T20:24:15.394Z,12.07
2022-11-30T20:26:43.310Z,11.75
2022-11-30T20:29:17.028Z,11.80
2022-11-30T20:31:44.886Z,12.30
2022-11-30T20:34:11.459Z,12.73
2022-11-30T20:36:38.257Z,12.00
2022-11-30T20:39:05.719Z,13.27
2022-11-30T20:41:34.534Z,13.43
2022-11-30T20:44:01.134Z,12.75
2022-11-30T20:46:28.880Z,12.63
2022-11-30T20:48:56.039Z,13.13
2022-11-30T20:51:31.747Z,14.73
2022-11-30T20:53:59.699Z,15.20
2022-11-30T20:56:26.205Z,15.95
2022-11-30T20:58:52.664Z,16.63
2022-11-30T21:01:20.458Z,16.15
2022-11-30T21:03:48.761Z,17.80
2022-11-30T21:06:16.161Z,18.08
2022-11-30T21:08:42.957Z,18.50
2022-11-30T21:11:14.035Z,18.70
2022-11-30T21:13:41.204Z,18.10
2022-11-30T21:16:08.238Z,18.55
2022-11-30T21:18:35.603Z,18.98
2022-11-30T21:21:06.019Z,18.42
2022-11-30T21:23:32.482Z,20.27
2022-11-30T21:26:06.274Z,19.02
2022-11-30T21:28:37.816Z,19.60
2022-11-30T21:31:05.450Z,19.48
2022-11-30T21:33:32.144Z,19.25
2022-11-30T21:35:58.631Z,19.40
2022-11-30T21:38:25.185Z,19.52
2022-11-30T21:40:59.146Z,19.58
2022-11-30T21:43:26.148Z,18.50
2022-11-30T21:46:00.094Z,19.95
2022-11-30T21:48:29.263Z,20.25
2022-11-30T21:50:59.559Z,19.27
2022-11-30T21:53:26.546Z,19.27
2022-11-30T21:55:55.723Z,20.05
2022-11-30T21:58:22.806Z,18.45
2022-11-30T22:00:55.820Z,19.10
2022-11-30T22:03:22.336Z,19.08
2022-11-30T22:05:58.062Z,16.13
2022-11-30T22:08:24.650Z,17.23
2022-11-30T22:10:51.040Z,16.95
2022-11-30T22:13:17.513Z,17.52
2022-11-30T22:15:43.939Z,16.67
2022-11-30T22:18:10.403Z,16.80
2022-11-30T22:20:36.794Z,15.70
2022-11-30T22:23:03.164Z,15.30
2022-11-30T22:25:29.497Z,14.70
2022-11-30T22:27:55.875Z,15.75
2022-11-30T22:30:22.227Z,14.77
2022-11-30T22:32:49.746Z,13.85
2022-11-30T22:35:16.119Z,15.20
2022-11-30T22:37:42.506Z,14.43
2022-11-30T22:40:09.210Z,14.88
2022-11-30T22:42:35.847Z,15.52
2022-11-30T22:45:02.188Z,16.25
2022-11-30T22:47:28.546Z,14.73
2022-11-30T22:49:54.898Z,15.52
2022-11-30T22:52:32.190Z,16.67
2022-11-30T22:55:08.013Z,15.10
2022-11-30T22:57:34.547Z,14.93
2022-11-30T23:00:00.950Z,14.80
2022-11-30T23:02:27.377Z,14.32
2022-11-30T23:04:53.822Z,14.18
2022-11-30T23:07:20.202Z,14.73
2022-11-30T23:09:46.978Z,14.15
2022-11-30T23:12:29.992Z,13.85
2022-11-30T23:14:59.994Z,13.95
2022-11-30T23:17:26.382Z,14.68
2022-11-30T23:19:52.745Z,14.68
2022-11-30T23:22:19.121Z,15.25
2022-11-30T23:24:45.470Z,14.45
2022-11-30T23:27:11.875Z,14.70
2022-11-30T23:29:40.285Z,14.38
2022-11-30T23:32:08.033Z,14.05
2022-11-30T23:34:34.450Z,14.52
2022-11-30T23:37:00.794Z,13.82
2022-11-30T23:39:27.167Z,13.10
2022-11-30T23:41:53.556Z,14.00
2022-11-30T23:44:19.909Z,13.90
2022-11-30T23:46:46.609Z,14.40
2022-11-30T23:49:13.987Z,15.02
2022-11-30T23:51:40.314Z,13.98
2022-11-30T23:54:06.678Z,14.20
2022-11-30T23:56:33.066Z,14.63
2022-11-30T23:58:59.437Z,13.18
